sensor_id;sensor_type;location;lat;lon;timestamp;P1;durP1;ratioP1;P2;durP2;ratioP2
3271;SDS011;1648;50.022;8.424;2024-01-30T00:07:52;32.27;;;17.87;;
3271;SDS011;1648;50.022;8.424;2024-01-30T00:22:56;27.23;;;14.90;;
3271;SDS011;1648;50.022;8.424;2024-01-30T00:37:59;29.83;;;15.40;;
3271;SDS011;1648;50.022;8.424;2024-01-30T00:53:09;23.77;;;12.57;;
3271;SDS011;1648;50.022;8.424;2024-01-30T01:08:17;25.97;;;15.33;;
3271;SDS011;1648;50.022;8.424;2024-01-30T01:23:22;20.50;;;12.97;;
3271;SDS011;1648;50.022;8.424;2024-01-30T01:38:25;28.10;;;14.70;;
3271;SDS011;1648;50.022;8.424;2024-01-30T01:53:28;27.57;;;14.70;;
3271;SDS011;1648;50.022;8.424;2024-01-30T02:08:35;31.10;;;15.33;;
3271;SDS011;1648;50.022;8.424;2024-01-30T02:23:42;31.37;;;16.00;;
3271;SDS011;1648;50.022;8.424;2024-01-30T02:38:46;27.23;;;15.47;;
3271;SDS011;1648;50.022;8.424;2024-01-30T02:53:49;27.50;;;14.33;;
3271;SDS011;1648;50.022;8.424;2024-01-30T03:08:53;32.47;;;16.00;;
3271;SDS011;1648;50.022;8.424;2024-01-30T03:24:00;22.17;;;13.27;;
3271;SDS011;1648;50.022;8.424;2024-01-30T03:39:03;26.50;;;16.10;;
3271;SDS011;1648;50.022;8.424;2024-01-30T03:54:06;23.77;;;13.70;;
3271;SDS011;1648;50.022;8.424;2024-01-30T04:09:12;30.70;;;16.07;;
3271;SDS011;1648;50.022;8.424;2024-01-30T04:24:15;29.97;;;15.23;;
3271;SDS011;1648;50.022;8.424;2024-01-30T04:39:19;21.33;;;13.57;;
3271;SDS011;1648;50.022;8.424;2024-01-30T04:54:23;29.13;;;15.67;;
3271;SDS011;1648;50.022;8.424;2024-01-30T05:09:26;28.10;;;15.70;;
3271;SDS011;1648;50.022;8.424;2024-01-30T05:24:31;27.77;;;15.60;;
3271;SDS011;1648;50.022;8.424;2024-01-30T05:39:35;28.47;;;14.23;;
3271;SDS011;1648;50.022;8.424;2024-01-30T05:54:38;28.93;;;13.33;;
3271;SDS011;1648;50.022;8.424;2024-01-30T06:09:42;26.03;;;13.50;;
3271;SDS011;1648;50.022;8.424;2024-01-30T06:24:47;29.47;;;15.10;;
3271;SDS011;1648;50.022;8.424;2024-01-30T06:39:51;28.17;;;15.80;;
3271;SDS011;1648;50.022;8.424;2024-01-30T06:54:56;39.53;;;19.90;;
3271;SDS011;1648;50.022;8.424;2024-01-30T07:09:59;29.03;;;18.00;;
3271;SDS011;1648;50.022;8.424;2024-01-30T07:25:10;35.33;;;17.77;;
3271;SDS011;1648;50.022;8.424;2024-01-30T07:40:14;39.80;;;20.57;;
3271;SDS011;1648;50.022;8.424;2024-01-30T07:55:19;28.40;;;16.73;;
3271;SDS011;1648;50.022;8.424;2024-01-30T08:10:22;36.80;;;18.60;;
3271;SDS011;1648;50.022;8.424;2024-01-30T08:25:26;34.20;;;17.80;;
3271;SDS011;1648;50.022;8.424;2024-01-30T08:40:29;28.63;;;16.20;;
3271;SDS011;1648;50.022;8.424;2024-01-30T08:55:33;32.03;;;16.60;;
3271;SDS011;1648;50.022;8.424;2024-01-30T09:10:36;30.40;;;16.60;;
3271;SDS011;1648;50.022;8.424;2024-01-30T09:25:40;30.03;;;17.07;;
3271;SDS011;1648;50.022;8.424;2024-01-30T09:40:43;34.97;;;18.57;;
3271;SDS011;1648;50.022;8.424;2024-01-30T09:55:48;32.43;;;18.57;;
3271;SDS011;1648;50.022;8.424;2024-01-30T10:10:53;36.23;;;20.30;;
3271;SDS011;1648;50.022;8.424;2024-01-30T10:25:56;37.47;;;17.70;;
3271;SDS011;1648;50.022;8.424;2024-01-30T10:41:01;35.27;;;20.40;;
3271;SDS011;1648;50.022;8.424;2024-01-30T10:56:05;33.13;;;19.60;;
3271;SDS011;1648;50.022;8.424;2024-01-30T11:11:09;28.60;;;17.73;;
3271;SDS011;1648;50.022;8.424;2024-01-30T11:26:14;31.80;;;20.73;;
3271;SDS011;1648;50.022;8.424;2024-01-30T11:41:19;38.83;;;20.10;;
3271;SDS011;1648;50.022;8.424;2024-01-30T11:56:23;34.93;;;21.30;;
3271;SDS011;1648;50.022;8.424;2024-01-30T12:11:26;38.33;;;22.07;;
3271;SDS011;1648;50.022;8.424;2024-01-30T12:26:30;33.13;;;20.07;;
3271;SDS011;1648;50.022;8.424;2024-01-30T12:41:36;36.53;;;21.07;;
3271;SDS011;1648;50.022;8.424;2024-01-30T12:56:40;38.63;;;20.27;;
3271;SDS011;1648;50.022;8.424;2024-01-30T13:11:44;33.47;;;21.00;;
3271;SDS011;1648;50.022;8.424;2024-01-30T13:26:49;34.80;;;18.00;;
3271;SDS011;1648;50.022;8.424;2024-01-30T13:41:52;29.33;;;18.47;;
3271;SDS011;1648;50.022;8.424;2024-01-30T13:56:56;35.30;;;19.70;;
3271;SDS011;1648;50.022;8.424;2024-01-30T14:11:59;37.43;;;22.90;;
3271;SDS011;1648;50.022;8.424;2024-01-30T14:27:03;31.93;;;20.13;;
3271;SDS011;1648;50.022;8.424;2024-01-30T14:42:07;32.90;;;19.67;;
3271;SDS011;1648;50.022;8.424;2024-01-30T14:57:11;36.33;;;20.27;;
3271;SDS011;1648;50.022;8.424;2024-01-30T15:12:14;28.67;;;19.23;;
3271;SDS011;1648;50.022;8.424;2024-01-30T15:27:18;32.87;;;19.40;;
3271;SDS011;1648;50.022;8.424;2024-01-30T15:42:21;35.47;;;20.07;;
3271;SDS011;1648;50.022;8.424;2024-01-30T15:57:24;33.93;;;20.70;;
3271;SDS011;1648;50.022;8.424;2024-01-30T16:12:31;39.57;;;22.33;;
3271;SDS011;1648;50.022;8.424;2024-01-30T16:27:36;41.73;;;23.27;;
3271;SDS011;1648;50.022;8.424;2024-01-30T16:42:42;37.13;;;22.17;;
3271;SDS011;1648;50.022;8.424;2024-01-30T16:57:46;38.43;;;21.17;;
3271;SDS011;1648;50.022;8.424;2024-01-30T17:12:52;33.47;;;19.47;;
3271;SDS011;1648;50.022;8.424;2024-01-30T17:27:57;39.70;;;19.97;;
3271;SDS011;1648;50.022;8.424;2024-01-30T17:43:01;40.33;;;20.47;;
3271;SDS011;1648;50.022;8.424;2024-01-30T17:58:04;43.10;;;21.10;;
3271;SDS011;1648;50.022;8.424;2024-01-30T18:13:08;36.90;;;18.73;;
3271;SDS011;1648;50.022;8.424;2024-01-30T18:28:12;37.67;;;20.97;;
3271;SDS011;1648;50.022;8.424;2024-01-30T18:43:18;35.07;;;20.53;;
3271;SDS011;1648;50.022;8.424;2024-01-30T18:58:22;36.10;;;21.03;;
3271;SDS011;1648;50.022;8.424;2024-01-30T19:13:27;49.13;;;24.33;;
3271;SDS011;1648;50.022;8.424;2024-01-30T19:28:31;37.07;;;21.70;;
3271;SDS011;1648;50.022;8.424;2024-01-30T19:43:35;53.37;;;24.70;;
3271;SDS011;1648;50.022;8.424;2024-01-30T19:58:39;43.80;;;25.20;;
3271;SDS011;1648;50.022;8.424;2024-01-30T20:13:43;43.40;;;25.40;;
3271;SDS011;1648;50.022;8.424;2024-01-30T20:28:48;38.20;;;23.53;;
3271;SDS011;1648;50.022;8.424;2024-01-30T20:43:51;40.13;;;22.90;;
3271;SDS011;1648;50.022;8.424;2024-01-30T20:58:56;39.33;;;22.63;;
3271;SDS011;1648;50.022;8.424;2024-01-30T21:14:02;32.20;;;21.17;;
3271;SDS011;1648;50.022;8.424;2024-01-30T21:29:16;39.17;;;21.83;;
3271;SDS011;1648;50.022;8.424;2024-01-30T21:44:20;36.63;;;21.67;;
3271;SDS011;1648;50.022;8.424;2024-01-30T21:59:32;37.60;;;23.07;;
3271;SDS011;1648;50.022;8.424;2024-01-30T22:14:39;34.80;;;21.70;;
3271;SDS011;1648;50.022;8.424;2024-01-30T22:29:47;31.93;;;18.77;;
3271;SDS011;1648;50.022;8.424;2024-01-30T22:44:53;35.60;;;18.63;;
3271;SDS011;1648;50.022;8.424;2024-01-30T23:00:12;34.90;;;21.00;;
3271;SDS011;1648;50.022;8.424;2024-01-30T23:15:19;29.30;;;19.63;;
3271;SDS011;1648;50.022;8.424;2024-01-30T23:30:28;27.43;;;16.33;;
3271;SDS011;1648;50.022;8.424;2024-01-30T23:45:36;28.60;;;18.30;;
